Greenville, North Carolina
Current Conditions -  °F | °C
As of 9:15 PM on Monday 22 Dec 2014 (Local Time) from KPGV Reporting Station
Haze Haze  
Wind Chill: 43°   Ceiling: 300
Heat Index: 43°   Visibility: 1.7mi
Dew Point: 41°   Wind: 3mph
Humidity: 93%   Direction: 10°N
Pressure: 30.05"   Gusts: NA
Location:  35.61°N, 77.38°W
Report Text: KPGV 230215Z AUTO 01003KT 1 3/4SM BR OVC003 06/05 A3005 RMK AO2
Loading
Personal Weather Stations






























Interactive Weather Map New forecast layout! Learn more

10-Day Weather Forecast

Advertisements
Track Severe Weather on mobile